Time;durP1;ratioP1;P1;durP2;ratioP2;P2;SDS_P1;SDS_P2;PMS_P1;PMS_P2;Temp;Humidity;BMP_temperature;BMP_pressure;BME280_temperature;BME280_humidity;BME280_pressure;Samples;Min_cycle;Max_cycle;Signal;HPM_P1;HPM_P2
2021/08/01 00:00:07;;;;;;;9.80;7.00;;;;;;;24.19;60.72;99954.93;1798035;77;21123;-69
2021/08/01 00:14:36;;;;;;;12.43;8.18;;;;;;;25.76;57.33;99955.92;1868579;75;22611;-69
2021/08/01 00:17:03;;;;;;;12.90;7.80;;;;;;;25.80;57.08;99952.23;1837202;77;21049;-69
2021/08/01 00:19:31;;;;;;;10.82;7.70;;;;;;;25.71;57.26;99954.45;1838444;77;21571;-69
2021/08/01 00:21:57;;;;;;;9.45;7.65;;;;;;;25.58;57.49;99950.64;1837631;75;21061;-69
2021/08/01 00:24:24;;;;;;;14.40;8.63;;;;;;;25.47;57.97;99951.44;1839536;77;21534;-69
2021/08/01 00:26:50;;;;;;;11.78;8.18;;;;;;;25.36;58.62;99951.72;1837414;76;21588;-69
2021/08/01 00:29:17;;;;;;;14.68;8.83;;;;;;;25.21;59.14;99953.45;1836921;77;21059;-69
2021/08/01 00:31:45;;;;;;;13.65;8.38;;;;;;;25.07;59.41;99944.77;1814089;77;21068;-69
2021/08/01 00:34:11;;;;;;;16.52;8.90;;;;;;;24.96;60.07;99946.88;1801015;77;21058;-68
2021/08/01 00:36:41;;;;;;;15.08;7.87;;;;;;;24.82;60.41;99939.52;1837864;77;21547;-67
2021/08/01 00:39:10;;;;;;;14.43;8.43;;;;;;;24.76;61.23;99935.04;1836941;77;21061;-66
2021/08/01 00:41:37;;;;;;;14.13;8.23;;;;;;;24.76;60.99;99942.58;1783794;78;21571;-67
2021/08/01 00:44:04;;;;;;;9.48;7.22;;;;;;;24.73;60.35;99935.48;1782549;78;21512;-67
2021/08/01 00:46:31;;;;;;;12.37;7.15;;;;;;;24.64;60.08;99945.75;1800531;77;21477;-67
2021/08/01 00:49:03;;;;;;;13.48;7.60;;;;;;;24.56;59.96;99944.70;1800868;78;21061;-67
2021/08/01 00:51:30;;;;;;;11.40;6.83;;;;;;;24.50;59.93;99947.75;1800089;78;21073;-67
2021/08/01 00:54:00;;;;;;;14.20;7.62;;;;;;;24.44;59.93;99940.58;1768291;78;21089;-68
2021/08/01 00:56:31;;;;;;;18.15;7.75;;;;;;;24.38;60.24;99952.25;1772858;79;21133;-68
2021/08/01 00:59:00;;;;;;;9.95;6.95;;;;;;;24.34;60.62;99951.03;1774403;78;21069;-67
2021/08/01 01:01:41;;;;;;;8.58;6.45;;;;;;;24.32;61.14;99955.83;1779503;78;21144;-68
2021/08/01 01:04:22;;;;;;;8.83;6.47;;;;;;;24.33;60.98;99948.07;1775708;78;21089;-68
2021/08/01 01:07:16;;;;;;;10.43;7.72;;;;;;;24.28;60.96;99950.89;1765170;80;21113;-68
2021/08/01 01:10:05;;;;;;;10.82;7.87;;;;;;;24.22;60.92;99950.42;1774446;78;21107;-69
2021/08/01 01:12:47;;;;;;;12.30;8.28;;;;;;;24.15;61.15;99956.41;1802823;78;21061;-68
2021/08/01 01:15:22;;;;;;;13.22;7.78;;;;;;;24.04;61.25;99955.28;1763287;79;21087;-68
2021/08/01 01:17:53;;;;;;;10.85;8.08;;;;;;;23.95;61.53;99961.16;1765278;79;21054;-68
2021/08/01 01:20:44;;;;;;;11.90;7.37;;;;;;;23.89;61.62;99954.28;1772643;79;21007;-68
2021/08/01 01:23:40;;;;;;;10.38;7.33;;;;;;;23.88;61.90;99951.81;1824395;77;21092;-68
2021/08/01 01:26:32;;;;;;;10.15;8.23;;;;;;;23.87;62.04;99949.66;1823947;77;21530;-68
2021/08/01 01:29:10;;;;;;;15.25;7.75;;;;;;;23.87;62.20;99947.48;1822850;77;21594;-68
2021/08/01 01:32:09;;;;;;;10.35;9.03;;;;;;;23.85;62.43;99944.20;1825727;77;21042;-68
2021/08/01 01:34:51;;;;;;;13.93;8.88;;;;;;;23.81;62.67;99934.91;1822189;77;21086;-68
2021/08/01 01:37:18;;;;;;;10.20;8.33;;;;;;;23.75;62.64;99935.26;1824813;77;21521;-68
2021/08/01 01:39:46;;;;;;;12.58;8.93;;;;;;;23.71;62.87;99932.72;1824252;77;21105;-68
2021/08/01 01:42:17;;;;;;;10.03;8.10;;;;;;;23.70;63.10;99931.06;1762785;79;21016;-68
2021/08/01 01:44:51;;;;;;;11.78;8.78;;;;;;;23.67;63.11;99930.16;1824067;77;21077;-68
2021/08/01 01:47:18;;;;;;;9.93;7.53;;;;;;;23.69;63.12;99928.10;1819990;77;21018;-68
2021/08/01 01:49:45;;;;;;;10.72;8.08;;;;;;;23.72;62.83;99924.95;1769235;77;21589;-68
2021/08/01 01:52:17;;;;;;;12.60;8.55;;;;;;;23.74;62.72;99920.20;1820078;77;21011;-68
2021/08/01 01:54:45;;;;;;;10.72;8.35;;;;;;;23.76;62.71;99924.83;1780813;79;21082;-68
2021/08/01 01:57:13;;;;;;;10.30;8.78;;;;;;;23.77;62.48;99914.89;1823961;76;21564;-68
2021/08/01 01:59:41;;;;;;;7.92;6.62;;;;;;;23.75;62.22;99907.05;1821013;77;22498;-69
2021/08/01 02:02:10;;;;;;;10.78;7.55;;;;;;;23.75;62.01;99917.80;1825689;77;22556;-68
2021/08/01 02:04:37;;;;;;;9.83;7.42;;;;;;;23.74;62.18;99920.20;1821022;77;21062;-68
2021/08/01 02:07:20;;;;;;;13.08;7.78;;;;;;;23.72;62.48;99920.42;1741411;77;21038;-68
2021/08/01 02:10:03;;;;;;;11.15;8.28;;;;;;;23.70;62.69;99914.95;1824840;77;21101;-68
2021/08/01 02:12:44;;;;;;;9.63;7.22;;;;;;;23.70;62.75;99917.64;1810991;77;21100;-68
2021/08/01 02:15:15;;;;;;;14.68;8.85;;;;;;;23.77;62.78;99912.20;1807362;77;22094;-68
2021/08/01 02:18:04;;;;;;;10.03;7.62;;;;;;;23.79;62.59;99912.30;1807863;77;21054;-68
2021/08/01 02:20:41;;;;;;;10.58;7.92;;;;;;;23.82;62.25;99912.39;1808145;78;21028;-69
2021/08/01 02:23:22;;;;;;;12.75;7.65;;;;;;;23.81;62.25;99906.70;1810907;77;21110;-69
2021/08/01 02:25:49;;;;;;;11.22;8.13;;;;;;;23.81;62.25;99904.02;1809233;77;21103;-69
2021/08/01 02:28:16;;;;;;;10.00;7.50;;;;;;;23.81;62.49;99904.02;1807359;77;21666;-69
2021/08/01 02:30:42;;;;;;;10.68;9.08;;;;;;;23.80;63.23;99915.80;1808719;77;21015;-69
2021/08/01 02:33:09;;;;;;;11.73;8.43;;;;;;;23.77;63.21;99914.39;1805266;77;21058;-68
2021/08/01 02:35:36;;;;;;;12.50;8.78;;;;;;;23.79;62.97;99914.98;1806558;78;21079;-68
2021/08/01 02:38:03;;;;;;;10.23;7.08;;;;;;;23.84;62.63;99911.14;1750539;80;21118;-69
2021/08/01 02:40:34;;;;;;;10.68;8.10;;;;;;;23.89;62.70;99908.61;1741526;81;21216;-68
2021/08/01 02:43:02;;;;;;;11.80;7.75;;;;;;;23.92;63.39;99898.77;1745627;81;21001;-69
2021/08/01 02:45:29;;;;;;;11.43;8.13;;;;;;;23.95;63.73;99896.67;1721202;81;21039;-69
2021/08/01 02:47:57;;;;;;;10.03;7.72;;;;;;;23.96;64.03;99894.30;1742235;80;21665;-69
2021/08/01 02:50:24;;;;;;;13.98;8.08;;;;;;;23.96;63.93;99896.45;1743281;79;21605;-69
2021/08/01 02:52:58;;;;;;;10.65;7.78;;;;;;;23.93;63.95;99894.20;1719515;81;21154;-69
2021/08/01 02:55:28;;;;;;;9.05;7.50;;;;;;;23.96;64.17;99901.02;1743388;80;21042;-68
2021/08/01 02:57:54;;;;;;;10.28;7.78;;;;;;;24.00;63.99;99899.52;1744731;80;21079;-68
2021/08/01 03:00:21;;;;;;;9.55;7.80;;;;;;;24.04;63.68;99910.09;1744986;81;21062;-69
2021/08/01 03:02:48;;;;;;;9.35;8.08;;;;;;;24.03;64.37;99913.85;1726715;81;21066;-67
2021/08/01 03:05:17;;;;;;;11.55;8.63;;;;;;;24.01;64.54;99912.73;1708621;81;21149;-68
2021/08/01 03:07:44;;;;;;;12.90;9.40;;;;;;;24.01;64.60;99911.92;1741630;80;21086;-68
2021/08/01 03:10:15;;;;;;;10.13;8.15;;;;;;;23.99;64.42;99904.58;1739522;80;21028;-68
2021/08/01 03:12:43;;;;;;;12.03;8.73;;;;;;;23.98;64.20;99906.45;1744402;80;21067;-57
2021/08/01 03:15:11;;;;;;;10.45;7.92;;;;;;;23.99;64.43;99914.83;1736532;80;21620;-59
2021/08/01 03:17:39;;;;;;;12.28;8.10;;;;;;;24.00;64.41;99912.42;1751087;80;21050;-60
2021/08/01 03:20:09;;;;;;;10.98;8.38;;;;;;;24.04;64.12;99914.13;1751576;80;21086;-60
2021/08/01 03:22:37;;;;;;;9.95;8.60;;;;;;;24.08;63.89;99926.09;1752557;80;21628;-62
2021/08/01 03:25:06;;;;;;;12.07;8.75;;;;;;;24.10;63.92;99926.16;1724303;80;21137;-61
2021/08/01 03:27:33;;;;;;;15.03;9.40;;;;;;;24.11;63.48;99929.16;1703984;81;21087;-61
2021/08/01 03:29:59;;;;;;;11.03;8.85;;;;;;;24.11;63.46;99933.72;1695056;83;22161;-64
2021/08/01 03:32:27;;;;;;;15.30;9.23;;;;;;;24.11;63.35;99936.41;1682216;83;21082;-64
2021/08/01 03:34:55;;;;;;;11.25;9.13;;;;;;;24.13;63.59;99944.25;1758721;79;21596;-65
2021/08/01 03:37:27;;;;;;;11.22;8.63;;;;;;;24.14;63.94;99930.59;1760897;80;21958;-66
2021/08/01 03:40:06;;;;;;;11.22;8.85;;;;;;;24.17;63.80;99928.77;1720683;80;21078;-65
2021/08/01 03:42:33;;;;;;;9.98;7.92;;;;;;;24.29;63.70;99929.69;1687161;83;21118;-65
2021/08/01 03:44:59;;;;;;;11.30;8.03;;;;;;;24.37;63.65;99931.24;1689021;82;22574;-62
2021/08/01 03:47:27;;;;;;;11.95;9.65;;;;;;;24.47;63.60;99925.34;1675631;83;21067;-65
2021/08/01 03:49:55;;;;;;;11.90;9.10;;;;;;;24.56;63.74;99928.06;1752581;80;22606;-63
2021/08/01 03:52:21;;;;;;;11.08;9.08;;;;;;;24.60;63.39;99933.28;1732257;80;21066;-65
2021/08/01 03:54:47;;;;;;;12.05;9.23;;;;;;;24.64;63.32;99933.11;1750438;80;21404;-64
2021/08/01 03:57:14;;;;;;;10.45;8.65;;;;;;;24.69;63.11;99931.09;1750451;80;21082;-63
2021/08/01 03:59:41;;;;;;;10.25;7.47;;;;;;;24.75;63.32;99944.18;1739197;80;21691;-68
2021/08/01 04:02:08;;;;;;;12.55;9.13;;;;;;;24.81;62.90;99952.66;1750329;80;21067;-70
2021/08/01 04:04:34;;;;;;;11.90;8.23;;;;;;;24.91;62.64;99952.12;1753477;80;22265;-71
2021/08/01 04:07:01;;;;;;;12.98;8.70;;;;;;;25.02;62.23;99950.83;1692670;82;21410;-71
2021/08/01 04:09:27;;;;;;;13.98;8.45;;;;;;;25.13;61.92;99956.47;1751911;80;21125;-69
2021/08/01 04:11:55;;;;;;;13.00;9.25;;;;;;;25.20;61.82;99959.38;1749411;80;21090;-69
2021/08/01 04:14:25;;;;;;;11.83;9.38;;;;;;;25.29;61.91;99957.74;1777782;77;20992;-69
2021/08/01 04:16:51;;;;;;;11.00;8.50;;;;;;;25.35;61.83;99962.19;1825679;77;21073;-69
2021/08/01 04:19:19;;;;;;;12.05;9.13;;;;;;;25.40;61.26;99951.03;1824382;77;21026;-68
2021/08/01 04:21:46;;;;;;;11.45;8.88;;;;;;;25.43;59.92;99951.08;1825119;77;21031;-69
2021/08/01 04:24:14;;;;;;;15.00;8.78;;;;;;;25.45;59.78;99957.58;1825060;77;21029;-67
2021/08/01 04:26:46;;;;;;;10.53;8.13;;;;;;;25.47;58.93;99959.52;1831295;76;21111;-70
2021/08/01 04:29:21;;;;;;;11.20;8.60;;;;;;;25.45;58.72;99964.31;1764393;79;21069;-70
2021/08/01 04:31:48;;;;;;;11.78;8.33;;;;;;;25.39;57.62;99969.58;1753396;80;21205;-69
2021/08/01 04:34:20;;;;;;;13.05;8.90;;;;;;;25.34;57.57;99974.02;1782983;79;21148;-71
2021/08/01 04:36:48;;;;;;;11.08;8.58;;;;;;;25.30;57.87;99976.86;1769301;79;21596;-68
2021/08/01 04:39:25;;;;;;;;;;;;;;;25.27;57.95;99973.28;1789396;79;21092;-69
2021/08/01 04:41:52;;;;;;;12.10;9.13;;;;;;;25.32;59.46;99981.52;1782666;79;20220;-70
2021/08/01 04:44:38;;;;;;;14.70;8.80;;;;;;;25.36;60.25;99983.50;1760419;79;21161;-69
2021/08/01 04:47:12;;;;;;;10.48;9.33;;;;;;;25.43;60.21;99973.97;1783076;79;21570;-70
2021/08/01 04:49:41;;;;;;;10.18;8.45;;;;;;;25.50;59.43;99972.52;1784408;79;21125;-68
2021/08/01 04:52:19;;;;;;;12.78;8.70;;;;;;;25.50;58.34;99968.48;1745223;80;21114;-70
2021/08/01 04:54:50;;;;;;;9.78;8.35;;;;;;;25.49;57.79;99971.71;1750673;80;21543;-68
2021/08/01 04:57:17;;;;;;;13.48;9.28;;;;;;;25.51;57.65;99988.45;1766932;79;21960;-68
2021/08/01 04:59:43;;;;;;;11.97;9.20;;;;;;;25.53;58.17;99984.19;1768220;79;21062;-70
2021/08/01 05:02:10;;;;;;;12.55;9.63;;;;;;;25.51;58.09;99972.30;1765985;79;21058;-69
2021/08/01 05:04:39;;;;;;;11.93;9.93;;;;;;;25.49;58.00;99974.41;1785901;79;21659;-67
2021/08/01 05:07:13;;;;;;;10.53;8.88;;;;;;;25.51;58.27;99971.48;1782670;79;21774;-71
2021/08/01 05:09:49;;;;;;;12.88;9.35;;;;;;;25.52;58.17;99973.95;1768634;79;22723;-68
2021/08/01 05:12:20;;;;;;;11.70;9.65;;;;;;;25.56;58.59;99971.61;1783254;78;21808;-69
2021/08/01 05:14:49;;;;;;;12.18;9.25;;;;;;;25.63;59.05;99966.92;1779233;78;21043;-70
2021/08/01 05:17:21;;;;;;;10.23;8.75;;;;;;;25.74;58.15;99970.70;1779498;79;21161;-69
2021/08/01 05:19:50;;;;;;;10.95;7.92;;;;;;;25.82;57.66;99964.94;1757713;79;21168;-69
2021/08/01 05:22:17;;;;;;;11.03;8.85;;;;;;;25.86;57.40;99960.73;1757623;79;21583;-70
2021/08/01 05:24:43;;;;;;;10.82;8.30;;;;;;;25.89;57.33;99957.58;1762615;79;21102;-69
2021/08/01 05:27:10;;;;;;;9.88;7.65;;;;;;;25.92;57.37;99954.42;1781877;79;21145;-69
2021/08/01 05:29:37;;;;;;;11.18;9.25;;;;;;;25.98;57.31;99945.13;1782183;79;21094;-69
2021/08/01 05:32:04;;;;;;;11.35;8.80;;;;;;;26.02;57.49;99939.55;1783228;78;21090;-71
2021/08/01 05:34:34;;;;;;;10.78;8.95;;;;;;;26.06;57.37;99933.45;1738867;80;21138;-70
2021/08/01 05:37:01;;;;;;;11.57;8.90;;;;;;;26.13;57.46;99944.93;1755460;79;21467;-67
2021/08/01 05:39:28;;;;;;;12.65;8.73;;;;;;;26.20;58.22;99951.55;1786665;78;21115;-68
2021/08/01 05:41:55;;;;;;;10.72;8.70;;;;;;;26.32;58.73;99960.97;1803642;77;21099;-68
2021/08/01 05:44:22;;;;;;;10.32;7.65;;;;;;;26.44;58.36;99965.80;1826443;77;21089;-69
2021/08/01 05:46:49;;;;;;;10.23;7.83;;;;;;;26.54;57.82;99963.84;1808537;77;22272;-68
2021/08/01 05:49:17;;;;;;;11.20;8.50;;;;;;;26.58;57.29;99964.19;1802997;77;21139;-71
2021/08/01 05:51:47;;;;;;;12.10;8.48;;;;;;;26.60;57.19;99965.60;1823062;77;21153;-66
2021/08/01 05:54:15;;;;;;;10.58;8.23;;;;;;;26.61;57.26;99964.55;1823347;77;21109;-70
2021/08/01 05:56:42;;;;;;;11.78;8.88;;;;;;;26.61;57.44;99965.91;1820749;76;21071;-58
2021/08/01 05:59:10;;;;;;;10.85;8.68;;;;;;;26.60;57.53;99964.80;1819373;77;21117;-77
2021/08/01 06:01:38;;;;;;;12.07;8.48;;;;;;;26.59;57.56;99961.79;1827487;77;21066;-79
2021/08/01 06:04:04;;;;;;;9.33;8.23;;;;;;;26.57;57.84;99958.52;1822836;77;22281;-68
2021/08/01 06:06:31;;;;;;;11.48;8.93;;;;;;;26.58;57.98;99962.33;1804286;77;20971;-68
2021/08/01 06:08:58;;;;;;;12.13;8.93;;;;;;;26.62;58.30;99961.31;1821432;77;21058;-67
2021/08/01 06:11:28;;;;;;;9.48;7.80;;;;;;;26.70;58.51;99965.02;1824650;77;21142;-69
2021/08/01 06:13:56;;;;;;;10.70;8.10;;;;;;;26.80;58.62;99960.36;1821577;76;21095;-66
2021/08/01 06:16:25;;;;;;;10.80;8.58;;;;;;;26.86;57.94;99964.27;1800003;77;21090;-69
2021/08/01 06:18:52;;;;;;;11.43;8.85;;;;;;;26.92;57.29;99972.46;1817708;77;21003;-68
2021/08/01 06:21:19;;;;;;;12.73;7.87;;;;;;;26.94;57.64;99970.33;1818773;77;20995;-74
2021/08/01 06:23:49;;;;;;;10.38;8.20;;;;;;;26.93;56.98;99968.69;1736332;80;21022;-70
2021/08/01 06:26:17;;;;;;;11.97;8.30;;;;;;;26.95;55.91;99972.80;1826306;77;20972;-73
2021/08/01 06:28:44;;;;;;;11.83;7.62;;;;;;;26.94;55.54;99969.80;1803263;77;21086;-69
2021/08/01 06:31:11;;;;;;;11.22;8.88;;;;;;;26.95;54.87;99967.39;1722289;80;21110;-67
2021/08/01 06:33:38;;;;;;;10.20;6.97;;;;;;;26.97;54.98;99967.97;1805248;77;21101;-69
2021/08/01 06:36:08;;;;;;;10.75;8.35;;;;;;;26.99;55.25;99975.28;1817257;77;21426;-70
2021/08/01 06:38:36;;;;;;;12.68;8.28;;;;;;;27.02;55.75;99982.09;1819049;77;21660;-70
2021/08/01 06:41:02;;;;;;;11.08;7.78;;;;;;;27.04;55.44;99979.97;1819209;77;21100;-68
2021/08/01 06:43:29;;;;;;;11.25;8.40;;;;;;;27.04;55.46;99972.68;1799380;77;21077;-68
2021/08/01 06:45:56;;;;;;;10.43;8.13;;;;;;;27.06;55.44;99976.49;1810703;77;21058;-74
2021/08/01 06:48:23;;;;;;;11.93;8.48;;;;;;;27.09;56.10;99972.50;1813821;77;21125;-72
2021/08/01 06:50:49;;;;;;;11.10;7.80;;;;;;;27.15;56.02;99965.60;1815456;77;21034;-70
2021/08/01 06:53:16;;;;;;;12.23;8.33;;;;;;;27.28;56.42;99965.00;1817863;77;21106;-72
2021/08/01 06:55:43;;;;;;;10.32;8.08;;;;;;;27.40;56.51;99967.12;1806898;77;21672;-72
2021/08/01 06:58:10;;;;;;;10.55;8.20;;;;;;;27.48;55.98;99961.31;1796658;77;21085;-66
2021/08/01 07:00:37;;;;;;;11.08;8.65;;;;;;;27.55;56.06;99951.16;1758163;79;21098;-70
2021/08/01 07:03:03;;;;;;;12.05;8.05;;;;;;;27.65;55.81;99955.10;1774940;79;21070;-63
2021/08/01 07:05:30;;;;;;;10.43;8.10;;;;;;;27.71;55.77;99952.23;1718935;80;21185;-69
2021/08/01 07:07:57;;;;;;;12.82;8.50;;;;;;;27.79;56.16;99948.30;1758413;79;21743;-71
2021/08/01 07:10:25;;;;;;;11.78;8.25;;;;;;;27.84;55.24;99948.37;1775015;79;21074;-70
2021/08/01 07:12:51;;;;;;;8.78;7.87;;;;;;;27.89;54.58;99945.75;1773934;79;21852;-70
2021/08/01 07:15:24;;;;;;;11.10;9.03;;;;;;;27.93;53.47;99957.72;1769388;79;20995;-68
2021/08/01 07:17:56;;;;;;;10.05;8.75;;;;;;;27.96;53.44;99955.87;1772531;78;21038;-70
2021/08/01 07:20:24;;;;;;;10.00;8.65;;;;;;;28.00;53.15;99956.20;1788355;78;21509;-70
2021/08/01 07:22:51;;;;;;;9.35;8.33;;;;;;;28.08;53.87;99953.61;1793288;77;21078;-70
2021/08/01 07:25:18;;;;;;;11.18;8.23;;;;;;;28.17;53.48;99955.61;1791971;78;21084;-70
2021/08/01 07:27:45;;;;;;;11.22;7.78;;;;;;;28.29;53.36;99960.91;1790143;78;21129;-67
2021/08/01 07:30:13;;;;;;;9.73;8.05;;;;;;;28.40;52.65;99959.72;1790184;78;21113;-71
2021/08/01 07:32:40;;;;;;;10.32;8.75;;;;;;;28.48;52.73;99966.02;1788770;78;21524;-70
2021/08/01 07:35:08;;;;;;;11.22;9.25;;;;;;;28.57;52.73;99960.48;1768013;78;21110;-70
2021/08/01 07:37:35;;;;;;;11.35;7.60;;;;;;;28.70;52.19;99957.39;1793845;77;21079;-72
2021/08/01 07:40:01;;;;;;;11.93;8.45;;;;;;;28.86;51.91;99953.50;1766856;78;21097;-71
2021/08/01 07:42:28;;;;;;;11.65;8.75;;;;;;;29.00;51.59;99957.45;1772871;78;21138;-69
2021/08/01 07:44:57;;;;;;;10.65;8.88;;;;;;;29.09;50.73;99960.52;1789159;78;21063;-70
2021/08/01 07:47:23;;;;;;;12.40;8.55;;;;;;;29.16;51.58;99965.72;1792100;78;22119;-71
2021/08/01 07:49:51;;;;;;;9.98;8.70;;;;;;;29.24;51.98;99962.03;1793635;77;21130;-71
2021/08/01 07:52:18;;;;;;;10.38;8.45;;;;;;;29.31;52.16;99960.47;1770347;78;21042;-71
2021/08/01 07:54:46;;;;;;;11.53;8.75;;;;;;;29.36;51.87;99958.34;1769861;78;21219;-73
2021/08/01 07:57:28;;;;;;;13.72;9.83;;;;;;;29.39;52.03;99965.97;1791465;78;21094;-71
2021/08/01 07:59:56;;;;;;;10.70;8.78;;;;;;;29.40;52.20;99957.58;1766885;78;21591;-70
2021/08/01 08:02:22;;;;;;;11.73;9.30;;;;;;;29.36;52.58;99957.00;1789923;77;21126;-69
2021/08/01 08:04:49;;;;;;;10.32;7.58;;;;;;;29.34;52.91;99958.60;1746100;78;21068;-71
2021/08/01 08:07:15;;;;;;;11.35;8.88;;;;;;;29.32;53.34;99953.15;1788493;78;21644;-73
2021/08/01 08:09:43;;;;;;;15.23;9.28;;;;;;;29.32;53.00;99956.70;1789291;78;21122;-73
2021/08/01 08:12:09;;;;;;;9.78;8.25;;;;;;;29.31;53.31;99959.11;1793526;78;22465;-68
2021/08/01 08:14:36;;;;;;;11.30;8.48;;;;;;;29.36;53.50;99957.00;1793297;77;22416;-71
2021/08/01 08:17:03;;;;;;;11.95;9.00;;;;;;;29.43;53.99;99960.30;1820571;77;21034;-70
2021/08/01 08:19:30;;;;;;;10.30;8.88;;;;;;;29.51;53.67;99957.66;1821443;77;22297;-72
2021/08/01 08:21:57;;;;;;;12.10;8.90;;;;;;;29.56;53.42;99953.09;1823574;77;21315;-66
2021/08/01 08:24:25;;;;;;;11.30;9.10;;;;;;;29.60;52.97;99950.13;1824205;77;21026;-65
2021/08/01 08:26:52;;;;;;;11.35;9.13;;;;;;;29.65;52.88;99945.28;1826922;77;21136;-65
2021/08/01 08:29:18;;;;;;;11.45;8.25;;;;;;;29.70;52.92;99952.09;1804863;77;21050;-65
2021/08/01 08:31:50;;;;;;;9.78;8.15;;;;;;;29.73;52.93;99946.70;1825274;77;21062;-66
2021/08/01 08:34:14;;;;;;;10.18;8.48;;;;;;;29.74;52.39;99941.03;1825589;77;21053;-66
2021/08/01 08:36:40;;;;;;;10.82;8.48;;;;;;;29.79;52.44;99945.16;1825662;77;21035;-66
2021/08/01 08:39:07;;;;;;;11.48;8.68;;;;;;;29.82;51.81;99941.09;1825012;77;21157;-66
2021/08/01 08:41:35;;;;;;;10.48;8.48;;;;;;;29.84;52.14;99945.70;1824207;77;21152;-66
2021/08/01 08:44:01;;;;;;;9.50;7.42;;;;;;;29.88;50.51;99942.77;1823930;76;21639;-67
2021/08/01 08:46:28;;;;;;;10.43;8.00;;;;;;;29.90;49.84;99948.73;1825480;77;21082;-66
2021/08/01 08:48:55;;;;;;;11.33;8.45;;;;;;;29.91;50.10;99944.96;1824710;77;21073;-65
2021/08/01 08:51:25;;;;;;;9.90;7.72;;;;;;;29.97;50.07;99958.00;1822660;77;22446;-65
2021/08/01 08:53:53;;;;;;;9.88;8.35;;;;;;;30.06;50.29;99955.09;1810316;77;21057;-65
2021/08/01 08:56:21;;;;;;;10.85;8.38;;;;;;;30.18;49.84;99952.97;1827149;77;21608;-64
2021/08/01 08:58:52;;;;;;;10.70;7.72;;;;;;;30.28;49.42;99952.73;1822330;77;21035;-65
2021/08/01 09:01:22;;;;;;;10.85;8.88;;;;;;;30.34;49.00;99961.18;1826389;77;21058;-67
2021/08/01 09:03:49;;;;;;;9.68;8.15;;;;;;;30.38;49.17;99951.48;1807852;77;21792;-66
2021/08/01 09:06:17;;;;;;;11.12;8.60;;;;;;;30.42;49.62;99947.14;1825830;77;21686;-68
2021/08/01 09:08:49;;;;;;;10.93;8.53;;;;;;;30.50;50.26;99947.98;1825322;77;21020;-67
2021/08/01 09:11:15;;;;;;;12.35;9.03;;;;;;;30.58;49.75;99952.62;1825594;77;21640;-67
2021/08/01 09:13:50;;;;;;;9.58;8.58;;;;;;;30.63;49.53;99953.47;1823933;77;21053;-67
2021/08/01 09:16:20;;;;;;;;;;;;;;;30.65;49.37;99957.25;1822302;77;21676;-68
2021/08/01 09:18:46;;;;;;;12.82;8.78;;;;;;;30.66;49.75;99958.89;1819926;77;20227;-68
2021/08/01 09:21:33;;;;;;;8.65;7.67;;;;;;;30.61;49.73;99959.69;1815140;77;21050;-61
2021/08/01 09:24:01;;;;;;;10.98;8.45;;;;;;;30.64;49.52;99961.87;1819111;77;21074;-62
2021/08/01 09:26:46;;;;;;;9.93;7.70;;;;;;;30.67;48.77;99958.62;1820517;77;21582;-63
2021/08/01 09:29:15;;;;;;;10.68;7.78;;;;;;;30.71;49.32;99957.55;1816828;77;21113;-66
2021/08/01 09:31:43;;;;;;;11.22;8.45;;;;;;;30.75;47.98;99947.25;1806236;77;21537;-66
2021/08/01 09:34:22;;;;;;;10.80;8.73;;;;;;;30.86;48.09;99948.63;1819035;77;22449;-72
2021/08/01 09:37:03;;;;;;;9.85;7.65;;;;;;;31.01;48.01;99945.16;1820181;77;21070;-69
2021/08/01 09:39:41;;;;;;;12.35;7.90;;;;;;;31.13;48.02;99949.78;1735942;80;21095;-72
2021/08/01 09:42:09;;;;;;;10.18;6.60;;;;;;;31.22;46.42;99950.05;1798042;77;21807;-70
2021/08/01 09:44:42;;;;;;;14.25;6.90;;;;;;;31.30;46.26;99953.08;1819892;77;21015;-69
2021/08/01 09:47:06;;;;;;;9.28;6.35;;;;;;;31.35;44.06;99950.08;1802291;77;21054;-72
2021/08/01 09:49:33;;;;;;;15.15;7.42;;;;;;;31.30;43.55;99957.16;1817385;76;21078;-68
2021/08/01 09:52:02;;;;;;;8.93;6.78;;;;;;;31.26;43.56;99947.09;1818514;77;21035;-71
2021/08/01 09:54:47;;;;;;;7.28;6.22;;;;;;;31.21;44.75;99947.09;1817526;77;21300;-64
2021/08/01 09:57:18;;;;;;;9.00;6.50;;;;;;;31.23;44.04;99945.71;1816748;77;21125;-68
2021/08/01 10:00:10;;;;;;;8.43;5.97;;;;;;;31.26;43.37;99947.89;1817684;77;21109;-66
2021/08/01 10:02:39;;;;;;;8.13;6.10;;;;;;;31.27;43.25;99948.17;1797024;76;21038;-67
2021/08/01 10:05:21;;;;;;;9.50;6.37;;;;;;;31.26;43.72;99943.81;1813207;77;21109;-68
2021/08/01 10:07:49;;;;;;;9.45;6.53;;;;;;;31.34;43.56;99941.63;1818077;77;21063;-69
2021/08/01 10:10:25;;;;;;;8.00;6.40;;;;;;;31.42;44.03;99937.02;1819856;77;21125;-68
2021/08/01 10:12:57;;;;;;;9.05;6.55;;;;;;;31.54;44.43;99932.69;1794882;77;21070;-69
2021/08/01 10:15:30;;;;;;;12.13;7.28;;;;;;;31.70;44.12;99930.23;1820426;77;21077;-67
2021/08/01 10:17:58;;;;;;;9.70;6.73;;;;;;;31.86;44.58;99926.95;1768709;77;21502;-67
2021/08/01 10:20:27;;;;;;;9.85;6.03;;;;;;;32.02;44.54;99910.02;1819512;76;21071;-69
2021/08/01 10:22:54;;;;;;;13.22;6.22;;;;;;;32.20;44.18;99909.99;1820053;76;21066;-70
2021/08/01 10:25:21;;;;;;;8.13;6.22;;;;;;;32.40;43.37;99909.89;1816443;76;21545;-72
2021/08/01 10:27:53;;;;;;;8.25;6.17;;;;;;;32.55;41.81;99904.11;1816461;76;21103;-68
2021/08/01 10:30:21;;;;;;;9.45;5.05;;;;;;;32.65;41.42;99904.08;1817329;77;21100;-71
2021/08/01 10:32:50;;;;;;;12.15;5.72;;;;;;;32.73;40.58;99904.02;1818633;76;21073;-72
2021/08/01 10:35:17;;;;;;;10.25;5.97;;;;;;;32.75;40.46;99908.63;1816742;77;21085;-71
2021/08/01 10:38:04;;;;;;;12.10;5.22;;;;;;;32.79;40.16;99906.98;1816106;77;21042;-67
2021/08/01 10:40:34;;;;;;;7.67;5.30;;;;;;;32.85;39.77;99910.47;1819412;77;21039;-67
2021/08/01 10:43:12;;;;;;;9.08;5.97;;;;;;;32.85;39.80;99915.92;1779962;79;21058;-69
2021/08/01 10:45:45;;;;;;;8.65;5.95;;;;;;;32.81;39.56;99912.95;1778018;79;22887;-67
2021/08/01 10:48:13;;;;;;;8.18;6.25;;;;;;;32.70;39.63;99910.86;1777578;79;21504;-66
2021/08/01 10:50:40;;;;;;;9.48;6.62;;;;;;;32.64;39.64;99905.16;1756248;79;21557;-71
2021/08/01 10:53:24;;;;;;;9.30;6.20;;;;;;;32.62;39.72;99911.45;1735209;80;21070;-68
2021/08/01 10:55:54;;;;;;;10.20;5.67;;;;;;;32.57;40.16;99907.36;1745747;80;21565;-68
2021/08/01 10:58:20;;;;;;;7.30;5.65;;;;;;;32.55;40.32;99913.64;1735046;80;21164;-68
2021/08/01 11:01:00;;;;;;;8.85;6.45;;;;;;;32.52;40.51;99915.00;1815228;77;21590;-67
2021/08/01 11:03:28;;;;;;;7.37;5.75;;;;;;;32.57;41.03;99915.53;1819917;77;21043;-72
2021/08/01 11:05:55;;;;;;;9.25;6.53;;;;;;;32.60;40.45;99914.97;1808847;77;21074;-70
2021/08/01 11:08:22;;;;;;;8.13;6.42;;;;;;;32.62;40.50;99906.00;1805057;77;21445;-70
2021/08/01 11:11:11;;;;;;;10.80;6.53;;;;;;;32.60;40.74;99902.72;1817594;76;21031;-69
2021/08/01 11:13:44;;;;;;;9.03;6.03;;;;;;;32.59;40.37;99895.63;1815830;77;21691;-68
2021/08/01 11:16:33;;;;;;;7.40;6.20;;;;;;;32.55;41.55;99897.30;1816361;77;21049;-68
2021/08/01 11:19:00;;;;;;;8.85;6.50;;;;;;;32.59;41.82;99898.36;1814079;77;21078;-70
2021/08/01 11:21:36;;;;;;;7.45;6.20;;;;;;;32.61;40.89;99893.47;1824444;77;21572;-68
2021/08/01 11:24:10;;;;;;;9.80;6.80;;;;;;;32.61;41.00;99893.99;1825703;77;21466;-68
2021/08/01 11:26:56;;;;;;;13.60;6.90;;;;;;;32.57;40.71;99897.83;1826156;77;21145;-69
2021/08/01 11:29:23;;;;;;;10.95;6.28;;;;;;;32.50;41.75;99898.70;1796373;77;21085;-69
2021/08/01 11:32:08;;;;;;;9.58;6.28;;;;;;;32.46;41.18;99898.97;1825381;77;21093;-69
2021/08/01 11:34:34;;;;;;;7.70;5.90;;;;;;;32.39;40.56;99900.09;1823677;76;21599;-68
2021/08/01 11:37:20;;;;;;;9.65;6.65;;;;;;;32.28;40.89;99905.34;1823286;77;21111;-71
2021/08/01 11:39:55;;;;;;;8.68;7.08;;;;;;;32.22;41.75;99889.55;1801950;77;21057;-69
2021/08/01 11:42:24;;;;;;;8.33;6.53;;;;;;;32.26;41.73;99891.16;1827181;77;21026;-68
2021/08/01 11:46:04;;;;;;;9.40;6.67;;;;;;;32.25;42.66;99883.30;1794523;78;23311;-78
2021/08/01 11:49:47;;;;;;;10.53;6.42;;;;;;;32.19;42.53;99875.69;1795128;78;22535;-79
2021/08/01 11:52:42;;;;;;;10.13;6.53;;;;;;;32.10;42.56;99871.37;1780212;79;20966;-80
2021/08/01 11:55:04;;;;;;;8.38;6.37;;;;;;;32.13;42.70;99870.83;1742204;80;21516;-80